Sunday, November 19, 2017, 10:26 AM GMT
Back to Local

CWST, La Pocatiere

Location: , , Canada Lat: 47.35
Local Time: 10:26 AM GMT (10:26 GMT) Lon: -70.033
Time Zone: GMT Elev: 101 ft

Show me the last for .
Show Coded

Time T Td Feel RH Dir Speed Gust Alt SLP Vis Weather Sky Remarks
2017-11-19 10:00 30 29 24 94 20° 7 - - 29.28 0 None
2017-11-19 09:00 29 29 22 100 30° 7 - - 29.32 0 None
2017-11-19 08:00 29 26 22 91 30° 6 - - 29.36 0 Pressure falling rapidly
1-hr Precip Total: 0.04"
2017-11-19 07:00 31 24 26 75 20° 5 - - 29.44 0 None
2017-11-19 06:00 30 24 26 78 30° 3 - - 29.47 0 None
2017-11-19 05:00 31 23 26 72 30° 5 - - 29.50 0 None
2017-11-19 04:00 29 24 25 80 30° 3 - - 29.55 0 None
2017-11-19 03:00 29 23 - 76 60° 2 - - 29.58 0 None
2017-11-19 02:00 27 22 - 81 60° 1 - - 29.62 0 None
2017-11-19 01:00 27 22 - 80 50° 2 - - 29.65 0 None
2017-11-19 00:00 27 21 23 76 40° 3 - - 29.68 0 None
2017-11-18 23:00 27 20 22 73 20° 5 - - 29.68 0 None
2017-11-18 22:00 27 20 19 74 50° 7 - - 29.67 0 None
2017-11-18 21:00 27 19 22 71 30° 5 - - 29.70 0 None
2017-11-18 20:00 27 18 23 68 10° 3 - - 29.73 0 None
2017-11-18 19:00 27 18 - 67 350° 2 - - 29.76 0 None
2017-11-18 18:00 26 17 - 67 100° 1 - - 29.78 0 None
2017-11-18 17:00 26 17 - 68 280° 2 - - 29.81 0 None
2017-11-18 16:00 24 16 20 70 260° 3 - - 29.83 0 None
2017-11-18 15:00 25 17 18 69 120° 6 - - 29.85 0 None
2017-11-18 14:00 22 16 11 74 230° 12 - - 29.90 0 Peak wind: 24 mph (21 kts) from 230° at 15 min
2017-11-18 13:00 20 14 3 78 230° 16 22 - 29.90 0 Peak wind: 24 mph (21 kts) from 240° at 42 min
2017-11-18 12:00 19 13 5 77 230° 16 - - 29.91 0 Peak wind: 21 mph (19 kts) from 230° at 49 min
2017-11-18 11:00 19 13 3 77 220° 15 21 - 29.90 0 Peak wind: 20 mph (18 kts) from 210° at 55 min

Support USWX by starting your Amazon purchase here.